createdAt,value
2018-11-07T00:02:19.387Z,10.50
2018-11-07T00:04:47.817Z,10.50
2018-11-07T00:07:16.394Z,10.50
2018-11-07T00:09:44.800Z,10.50
2018-11-07T00:12:13.285Z,10.50
2018-11-07T00:14:41.711Z,10.40
2018-11-07T00:17:10.213Z,10.50
2018-11-07T00:19:38.662Z,10.50
2018-11-07T00:22:07.452Z,10.60
2018-11-07T00:24:36.791Z,10.70
2018-11-07T00:27:05.239Z,10.70
2018-11-07T00:29:33.643Z,10.80
2018-11-07T00:32:02.053Z,10.90
2018-11-07T00:34:30.508Z,11.00
2018-11-07T00:36:58.912Z,11.10
2018-11-07T00:39:27.342Z,11.10
2018-11-07T00:41:55.758Z,11.20
2018-11-07T00:44:24.184Z,11.30
2018-11-07T00:46:52.582Z,11.30
2018-11-07T00:49:20.992Z,11.30
2018-11-07T00:51:49.388Z,11.20
2018-11-07T00:54:17.864Z,11.20
2018-11-07T00:56:46.300Z,11.20
2018-11-07T00:59:14.785Z,11.20
2018-11-07T01:01:44.083Z,11.20
2018-11-07T01:04:12.556Z,11.20
2018-11-07T01:06:40.979Z,11.20
2018-11-07T01:09:12.444Z,11.20
2018-11-07T01:11:42.165Z,11.20
2018-11-07T01:14:10.828Z,11.20
2018-11-07T01:16:39.675Z,11.20
2018-11-07T01:19:08.513Z,11.20
2018-11-07T01:21:36.939Z,11.20
2018-11-07T01:24:05.383Z,11.20
2018-11-07T01:26:33.868Z,11.10
2018-11-07T01:29:02.277Z,11.00
2018-11-07T01:31:30.928Z,10.90
2018-11-07T01:33:59.317Z,10.90
2018-11-07T01:36:27.724Z,10.80
2018-11-07T01:38:56.192Z,10.70
2018-11-07T01:41:24.621Z,10.60
2018-11-07T01:43:53.364Z,10.50
2018-11-07T01:46:21.829Z,10.40
2018-11-07T01:48:50.254Z,10.30
2018-11-07T01:51:18.632Z,10.30
2018-11-07T01:53:47.040Z,10.20
2018-11-07T01:56:15.420Z,10.20
2018-11-07T01:58:43.857Z,10.10
2018-11-07T02:01:12.270Z,10.00
2018-11-07T02:03:40.696Z,10.00
2018-11-07T02:06:09.084Z,10.00
2018-11-07T02:08:37.484Z,9.90
2018-11-07T02:11:06.152Z,10.00
2018-11-07T02:13:35.508Z,9.90
2018-11-07T02:16:03.964Z,10.00
2018-11-07T02:18:32.406Z,10.00
2018-11-07T02:21:00.966Z,9.90
2018-11-07T02:23:29.405Z,9.90
2018-11-07T02:25:57.874Z,9.90
2018-11-07T02:28:26.440Z,9.80
2018-11-07T02:30:54.820Z,9.80
2018-11-07T02:33:23.223Z,9.70
2018-11-07T02:35:51.616Z,9.80
2018-11-07T02:38:20.008Z,9.70
2018-11-07T02:40:48.420Z,9.70
2018-11-07T02:43:16.833Z,9.60
2018-11-07T02:45:45.257Z,9.60
2018-11-07T02:48:13.683Z,9.60
2018-11-07T02:50:42.066Z,9.60
2018-11-07T02:53:10.501Z,9.70
2018-11-07T02:55:38.907Z,9.70
2018-11-07T02:58:07.314Z,9.70
2018-11-07T03:00:35.835Z,9.70
2018-11-07T03:03:04.370Z,9.80
2018-11-07T03:05:32.888Z,9.80
2018-11-07T03:08:01.293Z,9.80
2018-11-07T03:10:29.803Z,9.80
2018-11-07T03:12:58.161Z,9.70
2018-11-07T03:15:26.580Z,9.70
2018-11-07T03:17:55.037Z,9.70
2018-11-07T03:20:23.428Z,9.60
2018-11-07T03:22:51.898Z,9.60
2018-11-07T03:25:20.316Z,9.60
2018-11-07T03:27:48.672Z,9.60
2018-11-07T03:30:17.063Z,9.60
2018-11-07T03:32:45.464Z,9.60
2018-11-07T03:35:19.137Z,9.60
2018-11-07T03:37:47.523Z,9.70
2018-11-07T03:40:15.886Z,9.70
2018-11-07T03:42:44.288Z,9.70
2018-11-07T03:45:12.784Z,9.70
2018-11-07T03:47:41.349Z,9.70
2018-11-07T03:50:09.766Z,9.80
2018-11-07T03:52:38.473Z,9.90
2018-11-07T03:55:07.166Z,9.80
2018-11-07T03:57:35.758Z,9.90
2018-11-07T04:00:05.705Z,9.90
2018-11-07T04:02:34.170Z,9.90
2018-11-07T04:05:02.589Z,9.90
2018-11-07T04:07:30.973Z,9.80
2018-11-07T04:09:59.356Z,9.80
2018-11-07T04:12:27.774Z,9.80
2018-11-07T04:14:56.191Z,9.70
2018-11-07T04:17:24.808Z,9.70
2018-11-07T04:19:53.204Z,9.60
2018-11-07T04:22:21.640Z,9.60
2018-11-07T04:24:50.043Z,9.60
2018-11-07T04:27:18.500Z,9.60
2018-11-07T04:29:47.102Z,9.70
2018-11-07T04:32:15.492Z,9.70
2018-11-07T04:34:43.901Z,9.70
2018-11-07T04:37:12.285Z,9.70
2018-11-07T04:39:40.726Z,9.70
2018-11-07T04:42:09.168Z,9.70
2018-11-07T04:44:37.569Z,9.70
2018-11-07T04:47:06.349Z,9.70
2018-11-07T04:49:34.745Z,9.70
2018-11-07T04:52:03.208Z,9.70
2018-11-07T04:54:31.597Z,9.70
2018-11-07T04:57:00.018Z,9.70
2018-11-07T04:59:28.464Z,9.60
2018-11-07T05:01:56.956Z,9.60
2018-11-07T05:04:25.432Z,9.70
2018-11-07T05:06:53.865Z,9.70
2018-11-07T05:09:22.291Z,9.60
2018-11-07T05:11:50.680Z,9.60
2018-11-07T05:14:19.051Z,9.50
2018-11-07T05:16:47.501Z,9.50
2018-11-07T05:19:16.136Z,9.40
2018-11-07T05:21:44.525Z,9.50
2018-11-07T05:24:12.935Z,9.40
2018-11-07T05:26:41.325Z,9.40
2018-11-07T05:29:09.728Z,9.40
2018-11-07T05:31:38.352Z,9.40
2018-11-07T05:34:06.769Z,9.40
2018-11-07T05:36:35.308Z,9.40
2018-11-07T05:39:04.742Z,9.40
2018-11-07T05:41:33.309Z,9.40
2018-11-07T05:44:01.742Z,9.30
2018-11-07T05:46:30.220Z,9.30
2018-11-07T05:48:58.786Z,9.30
2018-11-07T05:51:27.195Z,9.30
2018-11-07T05:53:55.592Z,9.30
2018-11-07T05:56:24.171Z,9.30
2018-11-07T05:58:52.582Z,9.30
2018-11-07T06:01:20.981Z,9.30
2018-11-07T06:03:49.396Z,9.30
2018-11-07T06:06:17.821Z,9.30
2018-11-07T06:08:46.276Z,9.20
2018-11-07T06:11:14.674Z,9.20
2018-11-07T06:13:43.064Z,9.20
2018-11-07T06:16:11.535Z,9.10
2018-11-07T06:18:39.976Z,9.10
2018-11-07T06:21:08.415Z,9.00
2018-11-07T06:23:36.849Z,9.10
2018-11-07T06:26:05.716Z,9.10
2018-11-07T06:28:34.119Z,9.10
2018-11-07T06:31:02.547Z,9.20
2018-11-07T06:33:30.933Z,9.20
2018-11-07T06:35:59.337Z,9.20
2018-11-07T06:38:27.836Z,9.20
2018-11-07T06:40:56.246Z,9.20
2018-11-07T06:43:24.647Z,9.20
2018-11-07T06:45:53.058Z,9.30
2018-11-07T06:48:21.461Z,9.20
2018-11-07T06:50:49.872Z,9.20
2018-11-07T06:53:18.304Z,9.20
2018-11-07T06:55:46.908Z,9.30
2018-11-07T06:58:15.467Z,9.30
2018-11-07T07:00:44.308Z,9.30
2018-11-07T07:03:12.809Z,9.60
2018-11-07T07:05:41.281Z,9.40
2018-11-07T07:08:09.686Z,9.40
2018-11-07T07:10:38.165Z,9.50
2018-11-07T07:13:06.623Z,9.50
2018-11-07T07:15:35.009Z,9.50
2018-11-07T07:18:03.457Z,9.50
2018-11-07T07:20:31.780Z,9.50
2018-11-07T07:23:00.180Z,9.50
2018-11-07T07:25:28.613Z,9.50
2018-11-07T07:27:57.145Z,9.50
2018-11-07T07:30:25.655Z,9.60
2018-11-07T07:32:54.023Z,9.60
2018-11-07T07:35:22.480Z,9.60
2018-11-07T07:37:51.003Z,9.70
2018-11-07T07:40:19.479Z,9.70
2018-11-07T07:42:48.100Z,9.80
2018-11-07T07:45:17.828Z,9.90
2018-11-07T07:47:46.676Z,9.90
2018-11-07T07:50:16.493Z,10.00
2018-11-07T07:52:45.320Z,10.00
2018-11-07T07:55:13.948Z,10.10
2018-11-07T07:57:43.156Z,10.20
2018-11-07T08:00:18.601Z,10.30
2018-11-07T08:02:48.103Z,10.30
2018-11-07T08:05:16.893Z,10.40
2018-11-07T08:07:45.760Z,10.50
2018-11-07T08:10:15.483Z,10.50
2018-11-07T08:12:44.184Z,10.60
2018-11-07T08:15:13.191Z,10.60
2018-11-07T08:17:42.558Z,10.70
2018-11-07T08:20:12.514Z,10.80
2018-11-07T08:22:41.677Z,10.90
2018-11-07T08:25:10.120Z,10.90
2018-11-07T08:27:38.523Z,10.90
2018-11-07T08:30:13.585Z,11.00
2018-11-07T08:32:42.281Z,11.00
2018-11-07T08:35:11.865Z,11.10
2018-11-07T08:37:41.080Z,11.10
2018-11-07T08:40:11.509Z,11.20
2018-11-07T08:42:40.133Z,11.30
2018-11-07T08:45:09.588Z,11.40
2018-11-07T08:47:38.039Z,11.40
2018-11-07T08:50:09.022Z,11.60
2018-11-07T08:52:37.448Z,11.60
2018-11-07T08:55:07.331Z,11.70
2018-11-07T08:57:35.697Z,11.90
2018-11-07T09:00:05.604Z,12.00
2018-11-07T09:02:34.032Z,12.00
2018-11-07T09:05:02.507Z,12.00
2018-11-07T09:07:31.093Z,12.10
2018-11-07T09:09:59.485Z,12.20
2018-11-07T09:12:27.876Z,12.20
2018-11-07T09:14:56.322Z,12.30
2018-11-07T09:17:24.721Z,12.40
2018-11-07T09:19:53.196Z,12.40
2018-11-07T09:22:22.851Z,12.50
2018-11-07T09:24:51.256Z,12.50
2018-11-07T09:27:19.758Z,12.60
2018-11-07T09:29:48.395Z,12.70
2018-11-07T09:32:16.796Z,12.80
2018-11-07T09:34:46.078Z,12.90
2018-11-07T09:37:14.508Z,13.00
2018-11-07T09:39:43.088Z,13.10
2018-11-07T09:42:11.502Z,13.10
2018-11-07T09:44:39.995Z,13.20
2018-11-07T09:47:08.695Z,13.30
2018-11-07T09:49:37.144Z,13.30
2018-11-07T09:52:06.468Z,13.40
2018-11-07T09:54:34.855Z,13.60
2018-11-07T09:57:03.281Z,13.60
2018-11-07T09:59:31.773Z,13.70
2018-11-07T10:02:00.169Z,13.80
2018-11-07T10:04:28.611Z,13.80
2018-11-07T10:06:57.017Z,13.90
2018-11-07T10:09:25.453Z,14.00
2018-11-07T10:11:54.716Z,14.20
2018-11-07T10:14:23.171Z,14.40
2018-11-07T10:16:51.584Z,14.50
2018-11-07T10:19:20.005Z,14.70
2018-11-07T10:21:48.679Z,14.80
2018-11-07T10:24:17.155Z,14.90
2018-11-07T10:26:45.685Z,15.00
2018-11-07T10:29:14.352Z,15.00
2018-11-07T10:31:42.695Z,15.00
2018-11-07T10:34:11.134Z,15.00
2018-11-07T10:36:39.532Z,15.10
2018-11-07T10:39:09.465Z,15.00
2018-11-07T10:41:37.868Z,15.00
2018-11-07T10:44:06.449Z,15.00
2018-11-07T10:46:34.852Z,15.00
2018-11-07T10:49:03.319Z,15.00
2018-11-07T10:51:31.740Z,15.10
2018-11-07T10:54:00.170Z,15.10
2018-11-07T10:56:28.703Z,15.30
2018-11-07T10:58:57.128Z,15.40
2018-11-07T11:01:31.014Z,15.50
2018-11-07T11:03:59.405Z,15.60
2018-11-07T11:06:27.828Z,15.70
2018-11-07T11:08:56.323Z,15.80
2018-11-07T11:11:24.788Z,15.90
2018-11-07T11:13:53.463Z,16.00
2018-11-07T11:16:22.397Z,16.20
2018-11-07T11:18:50.799Z,16.20
2018-11-07T11:21:19.279Z,16.10
2018-11-07T11:23:47.812Z,16.20
2018-11-07T11:26:16.217Z,16.20
2018-11-07T11:28:44.646Z,16.20
2018-11-07T11:31:13.050Z,16.20
2018-11-07T11:33:41.448Z,16.20
2018-11-07T11:36:09.939Z,16.30
2018-11-07T11:38:38.480Z,16.30
2018-11-07T11:41:08.094Z,16.30
2018-11-07T11:43:36.956Z,16.30
2018-11-07T11:46:05.435Z,16.30
2018-11-07T11:48:33.896Z,16.20
2018-11-07T11:51:02.406Z,16.20
2018-11-07T11:53:30.840Z,16.20
2018-11-07T11:55:59.457Z,16.30
2018-11-07T11:58:28.622Z,16.30
2018-11-07T12:01:03.633Z,16.30
2018-11-07T12:03:32.841Z,16.40
2018-11-07T12:06:01.271Z,16.40
2018-11-07T12:08:29.871Z,16.40
2018-11-07T12:10:58.338Z,16.40
2018-11-07T12:13:26.807Z,16.40
2018-11-07T12:15:55.212Z,16.40
2018-11-07T12:18:23.600Z,16.40
2018-11-07T12:20:52.017Z,16.40
2018-11-07T12:23:20.410Z,16.50
2018-11-07T12:25:48.795Z,16.40
2018-11-07T12:28:17.210Z,16.50
2018-11-07T12:30:45.622Z,16.40
2018-11-07T12:33:14.015Z,16.30
2018-11-07T12:35:42.406Z,16.30
2018-11-07T12:38:12.566Z,16.30
2018-11-07T12:40:42.048Z,16.40
2018-11-07T12:43:10.497Z,16.40
2018-11-07T12:45:38.982Z,16.40
2018-11-07T12:48:07.600Z,16.40
2018-11-07T12:50:36.023Z,16.40
2018-11-07T12:53:04.892Z,16.50
2018-11-07T12:55:33.329Z,16.40
2018-11-07T12:58:01.930Z,16.40
2018-11-07T13:00:30.174Z,16.50
2018-11-07T13:02:58.793Z,16.40
2018-11-07T13:05:27.468Z,16.30
2018-11-07T13:07:57.000Z,16.40
2018-11-07T13:10:25.436Z,16.40
2018-11-07T13:12:54.373Z,16.40
2018-11-07T13:15:22.804Z,16.40
2018-11-07T13:17:52.070Z,16.30
2018-11-07T13:20:21.850Z,16.40
2018-11-07T13:22:51.550Z,16.40
2018-11-07T13:25:20.251Z,16.30
2018-11-07T13:27:48.658Z,16.40
2018-11-07T13:30:21.108Z,16.40
2018-11-07T13:32:49.494Z,16.40
2018-11-07T13:35:18.469Z,16.40
2018-11-07T13:37:47.818Z,16.20
2018-11-07T13:40:17.806Z,16.20
2018-11-07T13:42:46.235Z,16.10
2018-11-07T13:45:17.000Z,16.10
2018-11-07T13:47:46.604Z,16.10
2018-11-07T13:50:15.890Z,16.00
2018-11-07T13:52:44.313Z,15.90
2018-11-07T13:55:13.403Z,15.90
2018-11-07T13:57:42.087Z,15.80
2018-11-07T14:00:13.124Z,15.80
2018-11-07T14:02:41.578Z,15.80
2018-11-07T14:05:10.912Z,15.80
2018-11-07T14:07:39.696Z,15.70
2018-11-07T14:10:10.346Z,15.70
2018-11-07T14:12:39.247Z,15.80
2018-11-07T14:15:09.539Z,15.80
2018-11-07T14:17:38.232Z,15.80
2018-11-07T14:20:07.312Z,15.90
2018-11-07T14:22:35.823Z,15.90
2018-11-07T14:25:04.892Z,15.80
2018-11-07T14:27:33.450Z,15.80
2018-11-07T14:30:02.410Z,15.80
2018-11-07T14:32:31.784Z,15.70
2018-11-07T14:35:00.325Z,15.60
2018-11-07T14:37:28.768Z,15.50
2018-11-07T14:39:57.173Z,15.50
2018-11-07T14:42:25.580Z,15.40
2018-11-07T14:44:54.058Z,15.40
2018-11-07T14:47:22.583Z,15.40
2018-11-07T14:49:50.973Z,15.40
2018-11-07T14:52:19.383Z,15.30
2018-11-07T14:54:47.845Z,15.30
2018-11-07T14:57:16.265Z,15.20
2018-11-07T14:59:44.677Z,15.10
2018-11-07T15:02:13.108Z,15.10
2018-11-07T15:04:41.836Z,15.00
2018-11-07T15:07:10.527Z,15.00
2018-11-07T15:09:39.039Z,15.00
2018-11-07T15:12:07.815Z,14.90
2018-11-07T15:14:36.236Z,14.90
2018-11-07T15:17:04.756Z,14.90
2018-11-07T15:19:33.169Z,14.90
2018-11-07T15:22:01.739Z,14.80
2018-11-07T15:24:30.178Z,14.80
2018-11-07T15:26:58.608Z,14.70
2018-11-07T15:29:27.114Z,14.70
2018-11-07T15:31:55.574Z,14.70
2018-11-07T15:34:24.025Z,14.60
2018-11-07T15:36:52.474Z,14.60
2018-11-07T15:39:20.932Z,14.50
2018-11-07T15:41:49.396Z,14.50
2018-11-07T15:44:17.804Z,14.50
2018-11-07T15:46:46.243Z,14.40
2018-11-07T15:49:15.014Z,14.40
2018-11-07T15:51:43.569Z,14.40
2018-11-07T15:54:11.981Z,14.30
2018-11-07T15:56:40.407Z,14.30
2018-11-07T15:59:08.865Z,14.30
2018-11-07T16:01:37.300Z,14.20
2018-11-07T16:04:06.001Z,14.20
2018-11-07T16:06:34.460Z,14.10
2018-11-07T16:09:03.375Z,14.10
2018-11-07T16:11:31.887Z,14.10
2018-11-07T16:14:00.341Z,14.10
2018-11-07T16:16:28.818Z,14.10
2018-11-07T16:18:57.641Z,14.10
2018-11-07T16:21:26.093Z,14.00
2018-11-07T16:23:55.172Z,14.10
2018-11-07T16:26:23.799Z,14.10
2018-11-07T16:28:52.297Z,14.00
2018-11-07T16:31:20.766Z,14.00
2018-11-07T16:33:49.236Z,14.00
2018-11-07T16:36:17.691Z,14.00
2018-11-07T16:38:46.169Z,14.00
2018-11-07T16:41:14.796Z,14.00
2018-11-07T16:43:43.148Z,14.00
2018-11-07T16:46:11.551Z,13.90
2018-11-07T16:48:39.982Z,13.90
2018-11-07T16:51:08.383Z,13.80
2018-11-07T16:53:36.911Z,13.80
2018-11-07T16:56:06.398Z,13.80
2018-11-07T16:58:34.812Z,13.80
2018-11-07T17:01:03.594Z,13.80
2018-11-07T17:03:32.061Z,13.80
2018-11-07T17:06:00.513Z,13.90
2018-11-07T17:08:29.048Z,14.00
2018-11-07T17:10:57.569Z,14.10
2018-11-07T17:13:26.007Z,14.30
2018-11-07T17:15:54.477Z,14.50
2018-11-07T17:18:22.934Z,14.60
2018-11-07T17:20:51.562Z,14.60
2018-11-07T17:23:19.956Z,14.70
2018-11-07T17:25:48.461Z,14.70
2018-11-07T17:28:16.947Z,14.70
2018-11-07T17:30:45.481Z,14.80
2018-11-07T17:33:14.080Z,14.80
2018-11-07T17:35:42.527Z,14.80
2018-11-07T17:38:10.949Z,14.80
2018-11-07T17:40:39.468Z,14.70
2018-11-07T17:43:08.047Z,14.70
2018-11-07T17:45:36.514Z,14.70
2018-11-07T17:48:05.104Z,14.70
2018-11-07T17:50:33.417Z,14.70
2018-11-07T17:53:01.853Z,14.60
2018-11-07T17:55:30.273Z,14.60
2018-11-07T17:57:58.731Z,14.50
2018-11-07T18:00:34.307Z,14.50
2018-11-07T18:03:02.852Z,14.50
2018-11-07T18:05:31.330Z,14.50
2018-11-07T18:07:59.757Z,14.50
2018-11-07T18:10:28.310Z,14.50
2018-11-07T18:12:57.576Z,14.50
2018-11-07T18:15:26.070Z,14.50
2018-11-07T18:17:54.623Z,14.50
2018-11-07T18:20:23.065Z,14.50
2018-11-07T18:22:51.481Z,14.50
2018-11-07T18:25:20.042Z,14.40
2018-11-07T18:27:48.460Z,14.40
2018-11-07T18:30:17.685Z,14.40
2018-11-07T18:32:46.980Z,14.40
2018-11-07T18:35:17.083Z,14.40
2018-11-07T18:37:45.888Z,14.40
2018-11-07T18:40:15.914Z,14.40
2018-11-07T18:42:44.334Z,14.40
2018-11-07T18:45:13.681Z,14.30
2018-11-07T18:47:43.536Z,14.30
2018-11-07T18:50:13.755Z,14.30
2018-11-07T18:52:42.541Z,14.30
2018-11-07T18:55:12.439Z,14.20
2018-11-07T18:57:41.520Z,14.20
2018-11-07T19:00:12.813Z,14.20
2018-11-07T19:02:41.985Z,14.30
2018-11-07T19:05:11.100Z,14.20
2018-11-07T19:07:39.567Z,14.30
2018-11-07T19:10:10.479Z,14.30
2018-11-07T19:12:39.336Z,14.20
2018-11-07T19:15:10.048Z,14.10
2018-11-07T19:17:39.176Z,14.10
2018-11-07T19:20:08.645Z,14.00
2018-11-07T19:22:37.210Z,14.00
2018-11-07T19:25:07.484Z,14.10
2018-11-07T19:27:36.932Z,14.00
2018-11-07T19:30:08.484Z,14.10
2018-11-07T19:32:37.180Z,14.00
2018-11-07T19:35:07.397Z,14.00
2018-11-07T19:37:35.910Z,14.00
2018-11-07T19:40:04.981Z,13.90
2018-11-07T19:42:33.513Z,13.90
2018-11-07T19:45:02.039Z,13.80
2018-11-07T19:47:30.610Z,13.80
2018-11-07T19:49:59.174Z,13.80
2018-11-07T19:52:27.661Z,13.80
2018-11-07T19:54:57.838Z,13.90
2018-11-07T19:57:26.271Z,13.90
2018-11-07T19:59:54.733Z,14.00
2018-11-07T20:02:23.395Z,14.00
2018-11-07T20:04:51.829Z,14.00
2018-11-07T20:07:20.384Z,14.00
2018-11-07T20:09:49.490Z,14.00
2018-11-07T20:12:17.928Z,14.00
2018-11-07T20:14:46.373Z,13.90
2018-11-07T20:17:14.908Z,13.90
2018-11-07T20:19:44.026Z,13.90
2018-11-07T20:22:12.574Z,13.90
2018-11-07T20:24:41.063Z,13.90
2018-11-07T20:27:09.494Z,13.90
2018-11-07T20:29:37.960Z,14.00
2018-11-07T20:32:06.806Z,14.00
2018-11-07T20:34:35.276Z,13.90
2018-11-07T20:37:03.848Z,13.90
2018-11-07T20:39:32.372Z,13.90
2018-11-07T20:42:00.894Z,13.90
2018-11-07T20:44:29.395Z,13.90
2018-11-07T20:46:57.896Z,14.00
2018-11-07T20:49:26.519Z,13.90
2018-11-07T20:51:54.988Z,13.90
2018-11-07T20:54:23.502Z,13.80
2018-11-07T20:56:51.956Z,13.80
2018-11-07T20:59:20.392Z,13.80
2018-11-07T21:01:49.036Z,13.80
2018-11-07T21:04:17.472Z,13.70
2018-11-07T21:06:46.026Z,13.70
2018-11-07T21:09:15.038Z,13.70
2018-11-07T21:11:43.603Z,13.70
2018-11-07T21:14:12.154Z,13.80
2018-11-07T21:16:40.596Z,13.70
2018-11-07T21:19:09.013Z,13.70
2018-11-07T21:21:37.473Z,13.70
2018-11-07T21:24:05.931Z,13.60
2018-11-07T21:26:34.453Z,13.60
2018-11-07T21:29:03.109Z,13.50
2018-11-07T21:31:31.673Z,13.50
2018-11-07T21:34:00.133Z,13.40
2018-11-07T21:36:28.607Z,13.40
2018-11-07T21:38:57.051Z,13.40
2018-11-07T21:41:25.515Z,13.40
2018-11-07T21:43:54.020Z,13.30
2018-11-07T21:46:22.554Z,13.30
2018-11-07T21:48:51.004Z,13.30
2018-11-07T21:51:19.447Z,13.30
2018-11-07T21:53:47.905Z,13.30
2018-11-07T21:56:16.332Z,13.40
2018-11-07T21:58:44.752Z,13.40
2018-11-07T22:01:13.148Z,13.40
2018-11-07T22:03:41.701Z,13.40
2018-11-07T22:06:10.171Z,13.40
2018-11-07T22:08:38.725Z,13.30
2018-11-07T22:11:07.228Z,13.30
2018-11-07T22:13:35.720Z,13.20
2018-11-07T22:16:04.140Z,13.20
2018-11-07T22:18:32.633Z,13.10
2018-11-07T22:21:01.078Z,13.10
2018-11-07T22:23:29.464Z,13.10
2018-11-07T22:25:57.953Z,13.20
2018-11-07T22:28:26.450Z,13.20
2018-11-07T22:30:55.531Z,13.20
2018-11-07T22:33:25.141Z,13.20
2018-11-07T22:35:53.616Z,13.10
2018-11-07T22:38:22.001Z,13.10
2018-11-07T22:40:50.413Z,13.20
2018-11-07T22:43:18.802Z,13.20
2018-11-07T22:45:47.213Z,13.20
2018-11-07T22:48:15.736Z,13.20
2018-11-07T22:50:44.255Z,13.20
2018-11-07T22:53:12.840Z,13.20
2018-11-07T22:55:41.240Z,13.20
2018-11-07T22:58:09.638Z,13.20
2018-11-07T23:00:44.390Z,13.20
2018-11-07T23:03:12.793Z,13.20
2018-11-07T23:05:41.797Z,13.10
2018-11-07T23:08:10.205Z,13.00
2018-11-07T23:10:38.694Z,13.00
2018-11-07T23:13:07.165Z,12.90
2018-11-07T23:15:41.026Z,12.90
2018-11-07T23:18:09.766Z,12.90
2018-11-07T23:20:38.229Z,12.80
2018-11-07T23:23:06.769Z,12.80
2018-11-07T23:25:35.145Z,12.80
2018-11-07T23:28:03.584Z,12.80
2018-11-07T23:30:32.037Z,12.80
2018-11-07T23:33:00.445Z,12.70
2018-11-07T23:35:28.908Z,12.70
2018-11-07T23:37:57.335Z,12.70
2018-11-07T23:40:25.769Z,12.70
2018-11-07T23:42:54.285Z,12.70
2018-11-07T23:45:22.732Z,12.70
2018-11-07T23:47:51.176Z,12.70
2018-11-07T23:50:19.590Z,12.70
2018-11-07T23:52:49.175Z,12.70
2018-11-07T23:55:19.128Z,12.70
2018-11-07T23:57:47.942Z,12.70
